Forside
METAR-TAF:

METAR-TAF

Lufthavne :

Ashland, Wisconsin, USA

Breddekreds: 46-32-59N, længdekreds: 090-55-06W, højde: 251 m

Aktuelle vejr

Denne rapport blev lavet for 21 minutter siden, kl. 11:53 UTC
Vind 3 kt fra østnordøst
Temperatur -4°C
Fugtighed 86%
Tryk 1021 hPa
Sigt: 16.1 km
Overskyet i en højde af 8000 ft

METAR: KASX 241153Z AUTO 06003KT 10SM OVC080 M04/M06 A3014 RMK AO2 SLP220 I6000 T10391061 11039 21100 56021

Tid: 06:14 (12:14 UTC)


TAF: fraværende

Vejrobservationer og prognoser fra mere end 4000 lufthavne (METAR og TAF).

De gule og røde prikker repræsenterer de meteorologiske stationer.

Flyt musen over at se navnet på stationen.

Så klik over at se vejr observationer og prognoser.

At skifte det kort: Klik på de grønne knapper med et sort kors for at zoome ind; på den grønne knap med en bindestreg for at zoome ud; eller på de grønne pile for tilstødende kort.


METAR-TAF: